Time;durP1;ratioP1;P1;durP2;ratioP2;P2;SDS_P1;SDS_P2;PMS_P1;PMS_P2;Temp;Humidity;BMP_temperature;BMP_pressure;BME280_temperature;BME280_humidity;BME280_pressure;Samples;Min_cycle;Max_cycle;Signal;HPM_P1;HPM_P2
2023/09/02 00:00:38;;;;;;;;;;;;;;;10.97;100.00;101502.56;7393326;19;19922;-52
2023/09/02 00:03:08;;;;;;;;;;;;;;;10.91;100.00;101493.69;7367106;19;19975;-48
2023/09/02 00:05:37;;;;;;;;;;;;;;;10.96;100.00;101498.22;7393506;19;19925;-47
2023/09/02 00:08:07;;;;;;;;;;;;;;;11.06;100.00;101490.13;7368236;19;19918;-54
2023/09/02 00:10:36;;;;;;;;;;;;;;;11.03;100.00;101495.16;7395178;19;19953;-51
2023/09/02 00:13:08;;;;;;;;;;;;;;;11.15;100.00;101497.47;7368723;19;19982;-49
2023/09/02 00:15:37;;;;;;;;;;;;;;;11.17;100.00;101494.16;7394275;19;19918;-48
2023/09/02 00:18:09;;;;;;;;;;;;;;;11.11;100.00;101499.00;7369270;19;19911;-47
2023/09/02 00:20:39;;;;;;;;;;;;;;;11.08;100.00;101504.88;7394384;19;19985;-46
2023/09/02 00:23:08;;;;;;;;;;;;;;;11.04;100.00;101502.06;7368066;19;19923;-48
2023/09/02 00:25:38;;;;;;;;;;;;;;;11.06;100.00;101505.63;7394159;19;19982;-51
2023/09/02 00:28:10;;;;;;;;;;;;;;;11.16;100.00;101505.28;7368821;19;20257;-51
2023/09/02 00:30:39;;;;;;;;;;;;;;;11.07;100.00;101503.13;7394855;19;19924;-52
2023/09/02 00:33:08;;;;;;;;;;;;;;;11.04;100.00;101505.53;7368538;19;20013;-52
2023/09/02 00:35:38;;;;;;;;;;;;;;;10.99;100.00;101519.03;7393017;19;19922;-48
2023/09/02 00:38:07;;;;;;;;;;;;;;;11.04;100.00;101515.00;7367783;19;20272;-50
2023/09/02 00:40:37;;;;;;;;;;;;;;;11.05;100.00;101511.59;7393466;19;19986;-47
2023/09/02 00:43:06;;;;;;;;;;;;;;;11.03;100.00;101510.63;7366183;19;19919;-49
2023/09/02 00:45:38;;;;;;;;;;;;;;;11.01;100.00;101510.56;7395065;19;19926;-50
2023/09/02 00:48:08;;;;;;;;;;;;;;;11.01;100.00;101512.22;7368733;19;19911;-50
2023/09/02 00:50:37;;;;;;;;;;;;;;;10.97;100.00;101500.84;7393801;19;19911;-51
2023/09/02 00:53:06;;;;;;;;;;;;;;;10.96;100.00;101501.66;7368069;19;19930;-45
2023/09/02 00:55:36;;;;;;;;;;;;;;;10.93;100.00;101499.81;7393593;19;19918;-48
2023/09/02 00:58:05;;;;;;;;;;;;;;;10.96;100.00;101495.63;7367908;19;19986;-49
2023/09/02 01:00:37;;;;;;;;;;;;;;;10.97;100.00;101508.59;7393018;19;19929;-47
2023/09/02 01:03:07;;;;;;;;;;;;;;;10.93;100.00;101504.97;7368625;19;20628;-46
2023/09/02 01:05:37;;;;;;;;;;;;;;;10.96;100.00;101517.16;7392507;19;20280;-50
2023/09/02 01:08:06;;;;;;;;;;;;;;;10.91;100.00;101513.44;7368481;19;20268;-50
2023/09/02 01:10:35;;;;;;;;;;;;;;;10.84;100.00;101513.94;7393271;19;20326;-50
2023/09/02 01:13:05;;;;;;;;;;;;;;;10.83;100.00;101513.06;7367843;19;20357;-47
2023/09/02 01:15:37;;;;;;;;;;;;;;;10.91;100.00;101514.34;7393108;19;19919;-45
2023/09/02 01:18:07;;;;;;;;;;;;;;;10.92;100.00;101512.66;7368301;19;20256;-47
2023/09/02 01:20:38;;;;;;;;;;;;;;;10.87;100.00;101514.13;7393659;19;19927;-46
2023/09/02 01:23:12;;;;;;;;;;;;;;;10.84;100.00;101512.25;7367819;19;19926;-49
2023/09/02 01:25:50;;;;;;;;;;;;;;;10.80;100.00;101518.94;7392690;19;20256;-48
2023/09/02 01:28:23;;;;;;;;;;;;;;;10.85;100.00;101526.94;7369446;19;20299;-50
2023/09/02 01:30:53;;;;;;;;;;;;;;;10.86;100.00;101543.31;7392056;19;19931;-49
2023/09/02 01:33:23;;;;;;;;;;;;;;;10.86;100.00;101545.91;7366605;19;19940;-50
2023/09/02 01:35:52;;;;;;;;;;;;;;;10.79;100.00;101553.31;7391030;19;20416;-51
2023/09/02 01:38:24;;;;;;;;;;;;;;;10.74;100.00;101559.03;7367650;19;19915;-52
2023/09/02 01:40:53;;;;;;;;;;;;;;;10.64;100.00;101567.97;7391127;19;19918;-51
2023/09/02 01:43:25;;;;;;;;;;;;;;;10.73;100.00;101577.91;7367069;19;19930;-46
2023/09/02 01:45:55;;;;;;;;;;;;;;;10.76;100.00;101578.06;7391092;19;19936;-52
2023/09/02 01:48:26;;;;;;;;;;;;;;;10.63;100.00;101572.25;7368312;19;20367;-47
2023/09/02 01:50:55;;;;;;;;;;;;;;;10.59;100.00;101575.47;7391459;19;20356;-49
2023/09/02 01:53:24;;;;;;;;;;;;;;;10.55;100.00;101581.25;7362991;19;19978;-47
2023/09/02 01:55:54;;;;;;;;;;;;;;;10.49;100.00;101579.22;7397493;19;20002;-51
2023/09/02 01:58:26;;;;;;;;;;;;;;;10.48;100.00;101577.47;7374714;19;19919;-53
2023/09/02 02:00:55;;;;;;;;;;;;;;;10.42;100.00;101591.66;7401587;19;19914;-51
2023/09/02 02:03:27;;;;;;;;;;;;;;;10.35;100.00;101596.47;7373731;19;19915;-48
2023/09/02 02:05:57;;;;;;;;;;;;;;;10.45;100.00;101599.63;7397495;19;19914;-52
2023/09/02 02:08:28;;;;;;;;;;;;;;;10.51;100.00;101608.56;7375032;19;19941;-48
2023/09/02 02:10:58;;;;;;;;;;;;;;;10.59;100.00;101601.25;7398015;19;20298;-50
2023/09/02 02:13:30;;;;;;;;;;;;;;;10.54;100.00;101602.69;7374794;19;19943;-52
2023/09/02 02:16:00;;;;;;;;;;;;;;;10.47;100.00;101605.75;7397178;19;19922;-47
2023/09/02 02:18:29;;;;;;;;;;;;;;;10.49;100.00;101617.03;7374782;19;19993;-51
2023/09/02 02:21:00;;;;;;;;;;;;;;;10.48;100.00;101623.00;7400109;19;20322;-50
2023/09/02 02:23:29;;;;;;;;;;;;;;;10.47;100.00;101631.53;7373919;19;20268;-49
2023/09/02 02:26:01;;;;;;;;;;;;;;;10.43;100.00;101624.44;7396963;19;19943;-50
2023/09/02 02:28:33;;;;;;;;;;;;;;;10.32;100.00;101627.28;7374617;19;19923;-48
2023/09/02 02:31:02;;;;;;;;;;;;;;;10.13;100.00;101635.63;7397490;19;19921;-49
2023/09/02 02:33:32;;;;;;;;;;;;;;;10.05;100.00;101626.56;7373198;19;19915;-51
2023/09/02 02:36:01;;;;;;;;;;;;;;;9.98;100.00;101633.06;7396615;19;20003;-51
2023/09/02 02:38:30;;;;;;;;;;;;;;;9.91;100.00;101628.34;7371676;19;19915;-50
2023/09/02 02:41:00;;;;;;;;;;;;;;;9.81;100.00;101627.81;7397282;19;19918;-49
2023/09/02 02:43:30;;;;;;;;;;;;;;;9.89;100.00;101619.66;7372206;19;19927;-47
2023/09/02 02:46:02;;;;;;;;;;;;;;;9.98;100.00;101609.84;7398633;19;19986;-47
2023/09/02 02:48:32;;;;;;;;;;;;;;;9.91;100.00;101600.91;7373785;19;20279;-48
2023/09/02 02:51:01;;;;;;;;;;;;;;;10.03;100.00;101582.66;7397612;19;19925;-50
2023/09/02 02:53:31;;;;;;;;;;;;;;;10.14;100.00;101588.41;7372304;19;19930;-49
2023/09/02 02:56:02;;;;;;;;;;;;;;;10.18;100.00;101592.94;7395653;19;20455;-48
2023/09/02 02:58:32;;;;;;;;;;;;;;;10.27;100.00;101598.63;7372062;19;19922;-48
2023/09/02 03:01:08;;;;;;;;;;;;;;;10.39;100.00;101606.19;7399194;19;19925;-47
2023/09/02 03:03:38;;;;;;;;;;;;;;;10.34;100.00;101607.59;7372991;19;19915;-47
2023/09/02 03:06:07;;;;;;;;;;;;;;;10.35;100.00;101596.47;7393776;19;19922;-52
2023/09/02 03:08:37;;;;;;;;;;;;;;;10.27;100.00;101592.59;7373365;19;19915;-48
2023/09/02 03:11:07;;;;;;;;;;;;;;;10.17;100.00;101585.13;7396264;19;20340;-48
2023/09/02 03:13:37;;;;;;;;;;;;;;;10.08;100.00;101580.31;7372421;19;19966;-46
2023/09/02 03:16:09;;;;;;;;;;;;;;;9.99;100.00;101576.44;7395568;19;20344;-49
2023/09/02 03:18:39;;;;;;;;;;;;;;;9.92;100.00;101565.69;7372216;19;19915;-48
2023/09/02 03:21:08;;;;;;;;;;;;;;;10.00;100.00;101565.31;7396375;19;19926;-53
2023/09/02 03:23:38;;;;;;;;;;;;;;;9.96;100.00;101565.94;7372046;19;19967;-51
2023/09/02 03:26:11;;;;;;;;;;;;;;;10.05;100.00;101568.16;7395825;19;19918;-48
2023/09/02 03:28:40;;;;;;;;;;;;;;;10.04;100.00;101568.94;7373109;19;19915;-52
2023/09/02 03:31:12;;;;;;;;;;;;;;;10.09;100.00;101564.06;7395670;19;19940;-50
2023/09/02 03:33:42;;;;;;;;;;;;;;;10.29;100.00;101564.31;7369529;19;19979;-50
2023/09/02 03:36:16;;;;;;;;;;;;;;;10.55;100.00;101570.06;7395464;19;19927;-47
2023/09/02 03:38:46;;;;;;;;;;;;;;;10.33;100.00;101572.31;7370766;19;19945;-47
2023/09/02 03:41:17;;;;;;;;;;;;;;;9.93;100.00;101577.75;7395762;19;19939;-49
2023/09/02 03:43:46;;;;;;;;;;;;;;;9.81;100.00;101589.16;7370695;19;19978;-51
2023/09/02 03:46:18;;;;;;;;;;;;;;;9.86;100.00;101598.03;7395426;19;19998;-49
2023/09/02 03:48:48;;;;;;;;;;;;;;;9.91;100.00;101606.06;7371712;19;19940;-49
2023/09/02 03:51:18;;;;;;;;;;;;;;;9.84;100.00;101585.84;7395318;19;19995;-52
2023/09/02 03:53:48;;;;;;;;;;;;;;;9.85;100.00;101578.22;7370683;19;19974;-49
2023/09/02 03:56:17;;;;;;;;;;;;;;;9.74;100.00;101587.00;7394874;19;19915;-52
2023/09/02 03:58:46;;;;;;;;;;;;;;;9.55;100.00;101593.66;7369924;19;19918;-52
2023/09/02 04:01:18;;;;;;;;;;;;;;;9.50;100.00;101600.25;7389914;19;19922;-48
2023/09/02 04:03:48;;;;;;;;;;;;;;;9.53;100.00;101600.41;7370492;19;19940;-50
2023/09/02 04:06:17;;;;;;;;;;;;;;;9.45;100.00;101596.50;7395246;19;19923;-48
2023/09/02 04:08:46;;;;;;;;;;;;;;;9.48;100.00;101606.97;7371303;19;19915;-46
2023/09/02 04:11:16;;;;;;;;;;;;;;;9.35;100.00;101615.66;7396894;19;19918;-46
2023/09/02 04:13:45;;;;;;;;;;;;;;;9.36;100.00;101613.94;7370171;19;19931;-48
2023/09/02 04:16:14;;;;;;;;;;;;;;;9.46;100.00;101624.03;7393536;19;19918;-50
2023/09/02 04:18:46;;;;;;;;;;;;;;;9.40;100.00;101626.22;7370079;19;19911;-44
2023/09/02 04:21:16;;;;;;;;;;;;;;;9.32;100.00;101636.97;7396660;19;19921;-46
2023/09/02 04:23:46;;;;;;;;;;;;;;;9.32;100.00;101636.06;7370205;19;19911;-46
2023/09/02 04:26:16;;;;;;;;;;;;;;;9.45;100.00;101635.13;7394353;19;19986;-46
2023/09/02 04:28:45;;;;;;;;;;;;;;;9.47;100.00;101633.53;7370234;19;19922;-50
2023/09/02 04:31:14;;;;;;;;;;;;;;;9.40;100.00;101624.56;7394768;19;19919;-50
2023/09/02 04:33:46;;;;;;;;;;;;;;;9.34;100.00;101633.59;7368366;19;19975;-50
2023/09/02 04:36:16;;;;;;;;;;;;;;;9.31;100.00;101637.75;7393638;19;19919;-48
2023/09/02 04:38:45;;;;;;;;;;;;;;;9.36;100.00;101642.28;7369112;19;19918;-50
2023/09/02 04:41:16;;;;;;;;;;;;;;;9.43;100.00;101636.69;7394143;19;19938;-49
2023/09/02 04:43:45;;;;;;;;;;;;;;;9.54;100.00;101643.41;7368241;19;19914;-48
2023/09/02 04:46:14;;;;;;;;;;;;;;;9.72;100.00;101642.72;7393702;19;19934;-47
2023/09/02 04:48:47;;;;;;;;;;;;;;;9.66;100.00;101640.69;7369517;19;19915;-47
2023/09/02 04:51:16;;;;;;;;;;;;;;;9.63;100.00;101637.91;7394031;19;20260;-49
2023/09/02 04:53:46;;;;;;;;;;;;;;;9.63;100.00;101643.06;7369183;19;19917;-48
2023/09/02 04:56:15;;;;;;;;;;;;;;;9.55;100.00;101649.44;7392821;19;19923;-51
2023/09/02 04:58:44;;;;;;;;;;;;;;;9.58;100.00;101655.69;7369156;19;20372;-47
2023/09/02 05:01:14;;;;;;;;;;;;;;;9.71;100.00;101657.28;7393418;19;19922;-51
2023/09/02 05:03:47;;;;;;;;;;;;;;;9.69;100.00;101663.16;7368242;19;19907;-50
2023/09/02 05:06:17;;;;;;;;;;;;;;;9.68;100.00;101671.69;7393263;19;19915;-48
2023/09/02 05:08:46;;;;;;;;;;;;;;;9.63;100.00;101667.97;7368326;19;20395;-46
2023/09/02 05:11:16;;;;;;;;;;;;;;;9.59;100.00;101680.63;7394360;19;19995;-47
2023/09/02 05:13:45;;;;;;;;;;;;;;;9.53;100.00;101693.16;7367891;19;19926;-52
2023/09/02 05:16:14;;;;;;;;;;;;;;;9.52;100.00;101691.38;7392657;19;19994;-47
2023/09/02 05:18:44;;;;;;;;;;;;;;;9.48;100.00;101699.69;7368413;19;19925;-48
2023/09/02 05:21:16;;;;;;;;;;;;;;;9.53;100.00;101703.47;7395288;19;20026;-46
2023/09/02 05:23:46;;;;;;;;;;;;;;;9.55;100.00;101693.25;7368057;19;20345;-51
2023/09/02 05:26:15;;;;;;;;;;;;;;;9.63;100.00;101696.31;7392595;19;19924;-48
2023/09/02 05:28:44;;;;;;;;;;;;;;;9.82;100.00;101690.56;7372704;19;19917;-46
2023/09/02 05:31:14;;;;;;;;;;;;;;;9.92;100.00;101689.41;7399298;19;19978;-47
2023/09/02 05:33:43;;;;;;;;;;;;;;;9.99;100.00;101681.22;7374409;19;19919;-49
2023/09/02 05:36:12;;;;;;;;;;;;;;;9.95;100.00;101679.28;7400910;19;19942;-50
2023/09/02 05:38:44;;;;;;;;;;;;;;;9.99;100.00;101691.53;7376118;19;19915;-50
2023/09/02 05:41:14;;;;;;;;;;;;;;;10.04;100.00;101692.72;7399052;19;19918;-47
2023/09/02 05:43:43;;;;;;;;;;;;;;;10.04;100.00;101691.84;7373418;19;19926;-47
2023/09/02 05:46:12;;;;;;;;;;;;;;;10.09;100.00;101701.63;7398596;19;19926;-46
2023/09/02 05:48:42;;;;;;;;;;;;;;;10.11;100.00;101710.31;7376164;19;19990;-51
2023/09/02 05:51:11;;;;;;;;;;;;;;;10.28;100.00;101710.44;7401016;19;19914;-46
2023/09/02 05:53:41;;;;;;;;;;;;;;;10.38;100.00;101709.28;7374702;19;19917;-45
2023/09/02 05:56:12;;;;;;;;;;;;;;;10.52;100.00;101707.53;7397796;19;19927;-48
2023/09/02 05:58:42;;;;;;;;;;;;;;;10.80;100.00;101703.91;7375272;19;19919;-48
2023/09/02 06:01:12;;;;;;;;;;;;;;;10.84;100.00;101699.81;7397172;19;19914;-50
2023/09/02 06:03:41;;;;;;;;;;;;;;;10.89;100.00;101696.69;7374594;19;20298;-50
2023/09/02 06:06:11;;;;;;;;;;;;;;;11.08;100.00;101711.50;7397383;19;19967;-45
2023/09/02 06:08:41;;;;;;;;;;;;;;;11.20;100.00;101705.22;7375405;19;19910;-46
2023/09/02 06:11:13;;;;;;;;;;;;;;;11.21;100.00;101707.00;7400851;19;19987;-50
2023/09/02 06:13:42;;;;;;;;;;;;;;;11.23;100.00;101710.53;7373766;19;19993;-48
2023/09/02 06:16:11;;;;;;;;;;;;;;;11.33;100.00;101710.25;7397387;19;19914;-50
2023/09/02 06:18:41;;;;;;;;;;;;;;;11.66;100.00;101706.81;7375725;19;19918;-49
2023/09/02 06:21:11;;;;;;;;;;;;;;;11.73;100.00;101706.31;7397180;19;19930;-49
2023/09/02 06:23:43;;;;;;;;;;;;;;;11.98;100.00;101707.56;7374163;19;19978;-46
2023/09/02 06:26:15;;;;;;;;;;;;;;;12.22;100.00;101704.50;7396907;19;19919;-51
2023/09/02 06:28:45;;;;;;;;;;;;;;;12.31;100.00;101708.34;7373637;19;19911;-50
2023/09/02 06:31:15;;;;;;;;;;;;;;;12.47;100.00;101710.00;7397694;19;19923;-49
2023/09/02 06:33:45;;;;;;;;;;;;;;;12.50;100.00;101712.72;7372543;19;19919;-48
2023/09/02 06:36:16;;;;;;;;;;;;;;;12.68;100.00;101717.91;7396946;19;19926;-49
2023/09/02 06:38:46;;;;;;;;;;;;;;;12.93;100.00;101714.78;7373366;19;19911;-49
2023/09/02 06:41:18;;;;;;;;;;;;;;;12.91;100.00;101723.28;7397307;19;19918;-45
2023/09/02 06:43:47;;;;;;;;;;;;;;;12.94;100.00;101733.81;7372369;19;19932;-50
2023/09/02 06:46:17;;;;;;;;;;;;;;;13.08;100.00;101744.84;7396450;19;19914;-47
2023/09/02 06:48:47;;;;;;;;;;;;;;;13.15;100.00;101764.13;7373102;19;20257;-48
2023/09/02 06:51:16;;;;;;;;;;;;;;;13.36;100.00;101772.94;7397362;19;19982;-49
2023/09/02 06:53:46;;;;;;;;;;;;;;;13.20;100.00;101794.66;7372383;19;19985;-45
2023/09/02 06:56:15;;;;;;;;;;;;;;;13.17;100.00;101814.34;7395808;19;19926;-49
2023/09/02 06:58:47;;;;;;;;;;;;;;;13.22;100.00;101826.69;7371455;19;19914;-53
2023/09/02 07:01:17;;;;;;;;;;;;;;;13.24;100.00;101839.75;7395337;19;20414;-52
2023/09/02 07:03:48;;;;;;;;;;;;;;;13.21;100.00;101843.06;7371772;19;20526;-45
2023/09/02 07:06:19;;;;;;;;;;;;;;;13.31;100.00;101849.59;7396053;19;19930;-50
2023/09/02 07:08:49;;;;;;;;;;;;;;;13.49;100.00;101849.59;7371752;19;19915;-49
2023/09/02 07:11:19;;;;;;;;;;;;;;;13.56;100.00;101855.06;7398606;19;19929;-46
2023/09/02 07:13:52;;;;;;;;;;;;;;;13.66;100.00;101870.25;7371594;19;19922;-52
2023/09/02 07:16:22;;;;;;;;;;;;;;;13.68;100.00;101891.94;7395592;19;20547;-48
2023/09/02 07:18:51;;;;;;;;;;;;;;;13.76;100.00;101900.09;7372580;19;19914;-51
2023/09/02 07:21:22;;;;;;;;;;;;;;;13.89;100.00;101902.44;7397015;19;19929;-47
2023/09/02 07:23:52;;;;;;;;;;;;;;;14.01;100.00;101911.59;7371660;19;19919;-48
2023/09/02 07:26:27;;;;;;;;;;;;;;;14.08;100.00;101928.31;7395256;19;19938;-46
2023/09/02 07:28:59;;;;;;;;;;;;;;;14.15;100.00;101927.81;7372128;19;20387;-45
2023/09/02 07:31:29;;;;;;;;;;;;;;;14.27;100.00;101933.56;7396939;19;20253;-50
2023/09/02 07:33:58;;;;;;;;;;;;;;;14.24;100.00;101948.09;7371226;19;19942;-53
2023/09/02 07:36:27;;;;;;;;;;;;;;;14.33;100.00;101951.13;7395497;19;19932;-50
2023/09/02 07:38:57;;;;;;;;;;;;;;;14.46;100.00;101965.53;7372221;19;20316;-48
2023/09/02 07:41:26;;;;;;;;;;;;;;;14.65;100.00;101974.13;7396091;19;19922;-49
2023/09/02 07:43:55;;;;;;;;;;;;;;;14.69;100.00;101984.75;7370224;19;19933;-54
2023/09/02 07:46:27;;;;;;;;;;;;;;;14.79;100.00;101998.16;7394445;19;19914;-49
2023/09/02 07:48:57;;;;;;;;;;;;;;;14.88;100.00;102002.88;7370763;19;20019;-49
2023/09/02 07:51:26;;;;;;;;;;;;;;;15.00;100.00;102011.22;7394217;19;19922;-50
2023/09/02 07:53:56;;;;;;;;;;;;;;;15.08;100.00;102022.81;7370104;19;19919;-53
2023/09/02 07:56:25;;;;;;;;;;;;;;;15.17;100.00;102024.94;7395219;19;19919;-47
2023/09/02 07:58:54;;;;;;;;;;;;;;;15.29;100.00;102036.69;7365123;19;19928;-49
2023/09/02 08:01:25;;;;;;;;;;;;;;;15.36;100.00;102043.91;7395022;19;19994;-50
2023/09/02 08:03:57;;;;;;;;;;;;;;;15.45;100.00;102046.03;7370930;19;19935;-49
2023/09/02 08:06:27;;;;;;;;;;;;;;;15.53;100.00;102057.63;7396509;19;20359;-51
2023/09/02 08:08:56;;;;;;;;;;;;;;;15.58;100.00;102071.72;7370819;19;19928;-53
2023/09/02 08:11:25;;;;;;;;;;;;;;;15.64;100.00;102071.97;7395241;19;19934;-51
2023/09/02 08:13:54;;;;;;;;;;;;;;;15.73;100.00;102076.69;7369595;19;19926;-50
2023/09/02 08:16:24;;;;;;;;;;;;;;;15.89;100.00;102077.31;7396239;19;19918;-52
2023/09/02 08:18:53;;;;;;;;;;;;;;;15.99;100.00;102079.50;7370537;19;19943;-53
2023/09/02 08:21:25;;;;;;;;;;;;;;;16.11;100.00;102083.41;7394458;19;19923;-49
2023/09/02 08:23:55;;;;;;;;;;;;;;;16.15;100.00;102087.94;7369614;19;19997;-49
2023/09/02 08:26:24;;;;;;;;;;;;;;;16.21;100.00;102085.56;7394434;19;19930;-50
2023/09/02 08:28:53;;;;;;;;;;;;;;;16.26;100.00;102089.22;7362196;19;19907;-50
2023/09/02 08:31:23;;;;;;;;;;;;;;;16.37;100.00;102091.38;7393120;19;19923;-49
2023/09/02 08:33:52;;;;;;;;;;;;;;;16.39;100.00;102101.03;7370094;19;20297;-49
2023/09/02 08:36:22;;;;;;;;;;;;;;;16.40;100.00;102107.13;7395495;19;20376;-51
2023/09/02 08:38:54;;;;;;;;;;;;;;;16.58;100.00;102102.63;7369255;19;19984;-52
2023/09/02 08:41:26;;;;;;;;;;;;;;;16.77;100.00;102105.91;7394560;19;19918;-53
2023/09/02 08:43:56;;;;;;;;;;;;;;;16.76;100.00;102116.31;7368067;19;19937;-47
2023/09/02 08:46:27;;;;;;;;;;;;;;;16.66;100.00;102115.06;7393508;19;19922;-44
2023/09/02 08:48:57;;;;;;;;;;;;;;;16.53;100.00;102130.22;7369154;19;20038;-42
2023/09/02 08:51:27;;;;;;;;;;;;;;;16.52;100.00;102128.44;7393685;19;19938;-41
2023/09/02 08:53:59;;;;;;;;;;;;;;;16.47;100.00;102140.41;7367846;19;19914;-45
2023/09/02 08:56:29;;;;;;;;;;;;;;;16.76;100.00;102142.34;7395243;19;19919;-41
2023/09/02 08:58:58;;;;;;;;;;;;;;;16.99;100.00;102136.28;7369395;19;19962;-46
2023/09/02 09:01:27;;;;;;;;;;;;;;;16.97;100.00;102148.38;7395415;19;19940;-41
2023/09/02 09:03:57;;;;;;;;;;;;;;;16.83;100.00;102160.88;7365641;19;19911;-44
2023/09/02 09:06:27;;;;;;;;;;;;;;;16.87;100.00;102170.59;7395418;19;20298;-41
2023/09/02 09:09:01;;;;;;;;;;;;;;;17.10;100.00;102175.84;7368263;19;20004;-40
2023/09/02 09:11:30;;;;;;;;;;;;;;;17.31;100.00;102184.38;7395814;19;19934;-42
2023/09/02 09:14:01;;;;;;;;;;;;;;;17.34;100.00;102201.03;7367560;19;19918;-41
2023/09/02 09:16:33;;;;;;;;;;;;;;;17.28;100.00;102209.50;7393051;19;19930;-42
2023/09/02 09:19:03;;;;;;;;;;;;;;;17.07;100.00;102227.84;7368638;19;19915;-43
2023/09/02 09:21:32;;;;;;;;;;;;;;;17.13;100.00;102217.66;7393532;19;19914;-40
2023/09/02 09:24:05;;;;;;;;;;;;;;;17.26;100.00;102241.59;7367441;19;20263;-40
2023/09/02 09:26:34;;;;;;;;;;;;;;;17.47;100.00;102243.22;7394716;19;19986;-40
2023/09/02 09:29:03;;;;;;;;;;;;;;;17.60;100.00;102253.28;7368154;19;20100;-41
2023/09/02 09:31:33;;;;;;;;;;;;;;;17.47;100.00;102256.25;7392859;19;20345;-40
2023/09/02 09:34:03;;;;;;;;;;;;;;;17.38;100.00;102257.69;7367149;19;19919;-41
2023/09/02 09:36:33;;;;;;;;;;;;;;;17.31;100.00;102246.97;7392538;19;19915;-41
2023/09/02 09:39:05;;;;;;;;;;;;;;;17.10;100.00;102245.34;7368579;19;19915;-41
2023/09/02 09:41:35;;;;;;;;;;;;;;;17.12;100.00;102236.75;7393064;19;19918;-40
2023/09/02 09:44:08;;;;;;;;;;;;;;;17.48;100.00;102238.06;7367037;19;19978;-41
2023/09/02 09:46:37;;;;;;;;;;;;;;;17.72;100.00;102255.44;7392281;19;19974;-41
2023/09/02 09:49:07;;;;;;;;;;;;;;;18.04;100.00;102252.19;7368414;19;19962;-41
2023/09/02 09:51:39;;;;;;;;;;;;;;;18.28;100.00;102251.28;7392531;19;20358;-41
2023/09/02 09:54:11;;;;;;;;;;;;;;;18.48;100.00;102255.47;7366898;19;19925;-42
2023/09/02 09:56:44;;;;;;;;;;;;;;;18.69;100.00;102253.47;7393986;19;19982;-42
2023/09/02 09:59:13;;;;;;;;;;;;;;;18.81;100.00;102230.31;7370039;19;20634;-41
2023/09/02 10:01:43;;;;;;;;;;;;;;;18.84;100.00;102232.16;7392614;19;19932;-41
2023/09/02 10:04:12;;;;;;;;;;;;;;;18.83;100.00;102233.00;7368524;19;19919;-41
2023/09/02 10:06:42;;;;;;;;;;;;;;;18.76;100.00;102229.28;7389244;19;20432;-42
2023/09/02 10:09:14;;;;;;;;;;;;;;;18.82;100.00;102245.16;7362872;19;19915;-41
2023/09/02 10:11:43;;;;;;;;;;;;;;;18.74;100.00;102263.25;7385043;19;19918;-41
2023/09/02 10:14:12;;;;;;;;;;;;;;;18.62;100.00;102226.25;7362770;19;19966;-41
2023/09/02 10:16:44;;;;;;;;;;;;;;;18.65;100.00;102205.44;7391115;19;20268;-41
2023/09/02 10:19:13;;;;;;;;;;;;;;;18.87;100.00;102190.44;7370518;19;19918;-40
2023/09/02 10:21:43;;;;;;;;;;;;;;;18.73;100.00;102114.19;7393644;19;19926;-41
2023/09/02 10:24:15;;;;;;;;;;;;;;;18.85;100.00;102100.56;7367415;19;19914;-40
2023/09/02 10:26:46;;;;;;;;;;;;;;;18.92;100.00;102011.00;7393950;19;19919;-41
2023/09/02 10:29:16;;;;;;;;;;;;;;;19.23;100.00;101956.06;7374420;19;19974;-40
2023/09/02 10:31:48;;;;;;;;;;;;;;;19.22;100.00;101926.38;7384302;19;19974;-40
2023/09/02 10:34:20;;;;;;;;;;;;;;;18.99;100.00;101874.38;7395570;19;19971;-42
2023/09/02 10:36:50;;;;;;;;;;;;;;;18.65;100.00;101927.53;7370594;19;19910;-40
2023/09/02 10:39:25;;;;;;;;;;;;;;;18.97;100.00;101962.34;7394381;19;19922;-41
2023/09/02 10:41:54;;;;;;;;;;;;;;;18.65;100.00;101959.75;7370669;19;19938;-40
2023/09/02 10:44:24;;;;;;;;;;;;;;;18.55;100.00;101978.66;7393377;19;19911;-41
2023/09/02 10:46:53;;;;;;;;;;;;;;;18.82;100.00;101936.69;7370352;19;19935;-40
2023/09/02 10:49:25;;;;;;;;;;;;;;;18.79;100.00;101888.66;7396763;19;20388;-40
2023/09/02 10:51:55;;;;;;;;;;;;;;;19.06;100.00;101835.34;7370972;19;19923;-41
2023/09/02 10:54:27;;;;;;;;;;;;;;;19.43;100.00;101752.41;7395388;19;19923;-41
2023/09/02 10:56:56;;;;;;;;;;;;;;;19.47;100.00;101681.00;7370773;19;19939;-40
2023/09/02 10:59:29;;;;;;;;;;;;;;;19.92;100.00;101694.91;7394270;19;19922;-41
2023/09/02 11:01:59;;;;;;;;;;;;;;;19.69;100.00;101661.34;7371498;19;19923;-45
2023/09/02 11:04:44;;;;;;;;;;;;;;;19.69;100.00;101634.31;7394279;19;19955;-40
2023/09/02 11:07:27;;;;;;;;;;;;;;;19.76;100.00;101588.16;7369868;19;19978;-41
2023/09/02 11:09:59;;;;;;;;;;;;;;;19.88;100.00;101577.03;7389942;19;19911;-42
2023/09/02 11:12:29;;;;;;;;;;;;;;;20.12;100.00;101580.88;7371902;19;20090;-40
2023/09/02 11:15:14;;;;;;;;;;;;;;;20.41;100.00;101615.38;7394639;19;19925;-40
2023/09/02 11:17:43;;;;;;;;;;;;;;;20.33;100.00;101675.53;7372717;19;19919;-41
2023/09/02 11:20:13;;;;;;;;;;;;;;;20.31;100.00;101632.69;7394530;19;19929;-41
2023/09/02 11:22:49;;;;;;;;;;;;;;;20.59;100.00;101655.81;7371675;19;19918;-40
2023/09/02 11:29:27;;;;;;;14.27;7.50;;;;;;;20.71;100.00;101684.81;7379670;19;20412;-35
2023/09/02 11:31:59;;;;;;;8.70;4.13;;;;;;;20.35;100.00;101683.41;7400134;19;20360;-38
2023/09/02 11:34:28;;;;;;;5.53;2.13;;;;;;;20.54;100.00;101678.44;7422584;19;20360;-38
2023/09/02 11:36:57;;;;;;;7.30;3.10;;;;;;;20.47;100.00;101657.38;7396700;19;20769;-38
2023/09/02 11:39:28;;;;;;;5.20;2.90;;;;;;;19.98;100.00;101694.16;7422902;19;20356;-37
2023/09/02 11:42:12;;;;;;;11.30;5.43;;;;;;;19.58;100.00;101699.50;7396784;19;20371;-38
2023/09/02 11:44:52;;;;;;;15.75;8.00;;;;;;;19.48;100.00;101706.31;7232413;19;3609139;-36
2023/09/02 11:47:22;;;;;;;41.88;22.08;;;;;;;19.46;100.00;101742.03;7394426;19;20395;-37
2023/09/02 11:49:52;;;;;;;37.33;20.33;;;;;;;19.81;100.00;101725.25;7421269;19;20355;-37
2023/09/02 11:52:23;;;;;;;21.98;11.93;;;;;;;19.95;100.00;101736.88;7401017;19;20439;-51
2023/09/02 11:54:52;;;;;;;11.73;6.22;;;;;;;20.01;100.00;101728.28;7421025;19;20411;-49
2023/09/02 11:57:23;;;;;;;14.00;7.68;;;;;;;20.08;100.00;101738.00;7398862;19;20315;-49
2023/09/02 11:59:55;;;;;;;26.95;16.20;;;;;;;20.26;100.00;101689.41;7422481;19;20352;-49
2023/09/02 12:02:25;;;;;;;7.40;3.15;;;;;;;20.14;100.00;101639.44;7399732;19;20345;-46
2023/09/02 12:04:55;;;;;;;14.75;7.68;;;;;;;19.84;100.00;101603.13;7423175;19;20348;-51
2023/09/02 12:07:25;;;;;;;12.13;6.32;;;;;;;19.70;100.00;101628.19;7398731;19;20411;-51
2023/09/02 12:09:54;;;;;;;32.20;17.40;;;;;;;19.98;100.00;101647.03;7423891;19;20365;-50
2023/09/02 12:12:24;;;;;;;13.18;6.75;;;;;;;20.18;100.00;101631.66;7400001;19;20328;-52
2023/09/02 12:14:59;;;;;;;37.10;20.85;;;;;;;20.36;100.00;101611.81;7422015;19;20352;-51
2023/09/02 12:17:29;;;;;;;7.43;3.25;;;;;;;20.60;100.00;101585.06;7399608;19;20327;-50
2023/09/02 12:19:59;;;;;;;13.27;7.05;;;;;;;20.53;100.00;101561.38;7423044;19;20351;-49
2023/09/02 12:22:28;;;;;;;12.43;6.10;;;;;;;20.77;100.00;101561.69;7399991;19;21059;-47
2023/09/02 12:24:58;;;;;;;4.53;1.65;;;;;;;21.13;100.00;101569.13;7425168;19;20367;-51
2023/09/02 12:27:27;;;;;;;12.30;6.55;;;;;;;21.31;100.00;101568.41;7400317;19;20320;-49
2023/09/02 12:30:00;;;;;;;9.20;4.80;;;;;;;21.35;100.00;101591.22;7421865;19;20359;-49
2023/09/02 12:32:32;;;;;;;7.90;3.80;;;;;;;21.17;100.00;101598.03;7395859;19;20304;-49
2023/09/02 12:35:01;;;;;;;9.95;5.40;;;;;;;20.63;100.00;101613.94;7419982;19;20768;-52
2023/09/02 12:37:31;;;;;;;10.50;5.10;;;;;;;20.76;100.00;101633.34;7398012;19;20716;-49
2023/09/02 12:40:11;;;;;;;4.47;2.08;;;;;;;21.18;100.00;101639.13;7396144;19;20356;-54